createdAt,value
2019-05-20T00:00:21.324Z,99.90
2019-05-20T00:02:50.814Z,99.90
2019-05-20T00:05:20.307Z,99.90
2019-05-20T00:07:49.798Z,99.90
2019-05-20T00:10:19.316Z,99.90
2019-05-20T00:12:48.805Z,99.90
2019-05-20T00:15:18.371Z,99.90
2019-05-20T00:17:47.842Z,99.90
2019-05-20T00:20:17.511Z,99.90
2019-05-20T00:22:47.008Z,99.90
2019-05-20T00:25:16.480Z,99.90
2019-05-20T00:27:45.991Z,99.90
2019-05-20T00:30:16.092Z,99.90
2019-05-20T00:32:45.602Z,99.90
2019-05-20T00:35:15.196Z,99.90
2019-05-20T00:37:44.697Z,99.90
2019-05-20T00:40:14.573Z,99.90
2019-05-20T00:42:44.011Z,99.90
2019-05-20T00:45:13.804Z,99.90
2019-05-20T00:47:43.258Z,99.90
2019-05-20T00:50:13.074Z,99.90
2019-05-20T00:52:42.648Z,99.90
2019-05-20T00:55:22.527Z,99.90
2019-05-20T00:57:52.010Z,99.90
2019-05-20T01:00:25.165Z,99.90
2019-05-20T01:02:57.320Z,99.90
2019-05-20T01:05:25.996Z,99.90
2019-05-20T01:07:55.486Z,99.90
2019-05-20T01:10:25.039Z,99.90
2019-05-20T01:12:54.634Z,99.90
2019-05-20T01:15:24.309Z,99.90
2019-05-20T01:17:53.793Z,99.90
2019-05-20T01:20:23.317Z,99.90
2019-05-20T01:22:52.794Z,99.90
2019-05-20T01:25:22.250Z,99.90
2019-05-20T01:27:51.739Z,99.90
2019-05-20T01:30:21.910Z,99.90
2019-05-20T01:32:51.344Z,99.90
2019-05-20T01:35:20.886Z,99.90
2019-05-20T01:37:50.445Z,99.90
2019-05-20T01:40:19.917Z,99.90
2019-05-20T01:42:49.405Z,99.90
2019-05-20T01:45:18.955Z,99.90
2019-05-20T01:47:48.427Z,99.90
2019-05-20T01:50:18.015Z,99.90
2019-05-20T01:52:47.480Z,99.90
2019-05-20T01:55:17.037Z,99.90
2019-05-20T01:57:46.528Z,99.90
2019-05-20T02:00:16.835Z,99.90
2019-05-20T02:02:46.342Z,99.90
2019-05-20T02:05:16.023Z,99.90
2019-05-20T02:07:45.509Z,99.90
2019-05-20T02:10:15.492Z,99.90
2019-05-20T02:12:44.978Z,99.90
2019-05-20T02:15:19.673Z,99.90
2019-05-20T02:17:49.156Z,99.90
2019-05-20T02:20:18.800Z,99.90
2019-05-20T02:22:48.348Z,99.90
2019-05-20T02:25:18.003Z,99.90
2019-05-20T02:27:47.548Z,99.90
2019-05-20T02:30:17.525Z,99.90
2019-05-20T02:32:46.987Z,99.90
2019-05-20T02:35:16.730Z,99.90
2019-05-20T02:37:46.199Z,99.90
2019-05-20T02:40:16.115Z,99.90
2019-05-20T02:42:45.666Z,99.90
2019-05-20T02:45:17.020Z,99.90
2019-05-20T02:47:46.467Z,99.90
2019-05-20T02:50:16.459Z,99.90
2019-05-20T02:52:45.925Z,99.90
2019-05-20T02:55:15.581Z,99.90
2019-05-20T02:57:44.878Z,99.90
2019-05-20T03:00:15.465Z,99.90
2019-05-20T03:02:44.906Z,99.90
2019-05-20T03:05:14.510Z,99.90
2019-05-20T03:07:43.994Z,99.90
2019-05-20T03:10:15.226Z,99.90
2019-05-20T03:12:44.692Z,99.90
2019-05-20T03:15:14.665Z,99.90
2019-05-20T03:17:44.262Z,99.90
2019-05-20T03:20:13.906Z,99.90
2019-05-20T03:22:43.428Z,99.90
2019-05-20T03:25:13.954Z,99.90
2019-05-20T03:27:43.523Z,99.90
2019-05-20T03:30:14.001Z,99.90
2019-05-20T03:32:43.454Z,99.90
2019-05-20T03:35:13.896Z,99.90
2019-05-20T03:37:43.382Z,99.90
2019-05-20T03:40:13.041Z,99.90
2019-05-20T03:42:42.586Z,99.90
2019-05-20T03:45:13.092Z,99.90
2019-05-20T03:47:42.551Z,99.90
2019-05-20T03:50:13.084Z,99.90
2019-05-20T03:52:42.567Z,99.90
2019-05-20T03:55:13.256Z,99.90
2019-05-20T03:57:42.728Z,99.90
2019-05-20T04:00:13.302Z,99.90
2019-05-20T04:02:42.787Z,99.90
2019-05-20T04:05:12.342Z,99.90
2019-05-20T04:07:41.789Z,99.90
2019-05-20T04:10:11.703Z,99.90
2019-05-20T04:12:41.281Z,99.90
2019-05-20T04:15:10.799Z,99.90
2019-05-20T04:17:40.233Z,99.90
2019-05-20T04:20:09.939Z,99.90
2019-05-20T04:22:39.375Z,99.90
2019-05-20T04:25:08.984Z,99.90
2019-05-20T04:27:38.462Z,99.90
2019-05-20T04:30:08.893Z,99.90
2019-05-20T04:32:38.373Z,99.90
2019-05-20T04:35:21.448Z,99.90
2019-05-20T04:37:39.084Z,99.90
2019-05-20T04:40:10.091Z,99.90
2019-05-20T04:42:39.581Z,99.90
2019-05-20T04:45:10.653Z,99.90
2019-05-20T04:47:40.107Z,99.90
2019-05-20T04:50:09.935Z,99.90
2019-05-20T04:52:39.373Z,99.90
2019-05-20T04:55:09.278Z,99.90
2019-05-20T04:57:38.695Z,99.90
2019-05-20T05:00:09.909Z,99.90
2019-05-20T05:02:43.221Z,99.90
2019-05-20T05:05:11.063Z,99.90
2019-05-20T05:07:40.572Z,99.90
2019-05-20T05:10:11.033Z,99.90
2019-05-20T05:12:40.451Z,99.90
2019-05-20T05:15:11.224Z,99.90
2019-05-20T05:17:40.801Z,99.90
2019-05-20T05:20:18.124Z,99.90
2019-05-20T05:22:42.437Z,99.90
2019-05-20T05:25:12.416Z,99.90
2019-05-20T05:27:41.873Z,99.90
2019-05-20T05:30:11.727Z,99.90
2019-05-20T05:32:41.544Z,99.90
2019-05-20T05:35:14.276Z,99.90
2019-05-20T05:37:43.889Z,99.90
2019-05-20T05:40:15.432Z,99.90
2019-05-20T05:42:44.887Z,99.90
2019-05-20T05:45:14.831Z,99.90
2019-05-20T05:47:44.270Z,99.90
2019-05-20T05:50:14.114Z,99.90
2019-05-20T05:52:43.537Z,99.90
2019-05-20T05:55:14.091Z,99.90
2019-05-20T05:57:43.545Z,99.90
2019-05-20T06:00:13.515Z,99.90
2019-05-20T06:02:43.348Z,99.90
2019-05-20T06:05:13.013Z,99.90
2019-05-20T06:07:42.430Z,99.90
2019-05-20T06:10:13.381Z,99.90
2019-05-20T06:12:42.933Z,99.90
2019-05-20T06:15:13.340Z,99.90
2019-05-20T06:17:42.858Z,99.90
2019-05-20T06:20:13.144Z,99.90
2019-05-20T06:22:43.168Z,99.90
2019-05-20T06:25:14.160Z,99.90
2019-05-20T06:27:43.712Z,99.90
2019-05-20T06:30:14.754Z,99.90
2019-05-20T06:32:44.320Z,99.90
2019-05-20T06:35:14.536Z,99.90
2019-05-20T06:37:45.894Z,99.90
2019-05-20T06:40:16.018Z,99.90
2019-05-20T06:42:46.557Z,99.90
2019-05-20T06:45:16.642Z,99.90
2019-05-20T06:47:52.514Z,99.90
2019-05-20T06:50:19.114Z,99.90
2019-05-20T06:52:48.591Z,99.90
2019-05-20T06:55:18.389Z,99.90
2019-05-20T06:57:47.883Z,99.90
2019-05-20T07:00:24.529Z,99.90
2019-05-20T07:02:53.991Z,99.90
2019-05-20T07:05:23.622Z,99.90
2019-05-20T07:07:53.115Z,99.90
2019-05-20T07:10:22.631Z,99.90
2019-05-20T07:12:52.201Z,99.90
2019-05-20T07:15:21.875Z,99.90
2019-05-20T07:17:51.502Z,99.90
2019-05-20T07:20:21.013Z,99.90
2019-05-20T07:22:55.661Z,99.90
2019-05-20T07:25:21.949Z,99.90
2019-05-20T07:27:51.499Z,99.90
2019-05-20T07:30:21.299Z,99.90
2019-05-20T07:32:50.781Z,99.90
2019-05-20T07:35:30.261Z,99.90
2019-05-20T07:37:51.519Z,99.90
2019-05-20T07:40:32.583Z,99.90
2019-05-20T07:43:04.072Z,99.90
2019-05-20T07:45:36.550Z,99.90
2019-05-20T07:48:07.312Z,99.90
2019-05-20T07:50:39.947Z,99.90
2019-05-20T07:53:13.304Z,99.90
2019-05-20T07:55:55.933Z,99.90
2019-05-20T07:58:33.470Z,99.80
2019-05-20T08:01:01.082Z,99.80
2019-05-20T08:03:30.634Z,99.70
2019-05-20T08:06:00.114Z,99.40
2019-05-20T08:08:29.659Z,99.40
2019-05-20T08:10:59.200Z,99.50
2019-05-20T08:13:28.747Z,99.50
2019-05-20T08:15:58.248Z,99.60
2019-05-20T08:18:27.830Z,99.50
2019-05-20T08:20:57.498Z,99.50
2019-05-20T08:23:27.161Z,99.30
2019-05-20T08:25:56.608Z,99.10
2019-05-20T08:28:26.086Z,99.30
2019-05-20T08:30:55.898Z,99.20
2019-05-20T08:33:25.860Z,99.00
2019-05-20T08:35:55.317Z,99.00
2019-05-20T08:38:24.790Z,99.10
2019-05-20T08:40:55.843Z,98.90
2019-05-20T08:43:25.297Z,99.40
2019-05-20T08:45:54.871Z,98.90
2019-05-20T08:48:24.335Z,98.70
2019-05-20T08:50:53.751Z,98.70
2019-05-20T08:53:23.351Z,98.70
2019-05-20T08:55:52.914Z,98.30
2019-05-20T08:58:22.404Z,98.50
2019-05-20T09:00:51.964Z,98.50
2019-05-20T09:03:21.521Z,98.60
2019-05-20T09:05:51.050Z,98.50
2019-05-20T09:08:20.598Z,98.70
2019-05-20T09:10:50.191Z,98.70
2019-05-20T09:13:19.675Z,98.40
2019-05-20T09:15:49.158Z,98.10
2019-05-20T09:18:18.720Z,98.30
2019-05-20T09:20:48.179Z,98.30
2019-05-20T09:23:17.768Z,98.20
2019-05-20T09:25:47.316Z,98.20
2019-05-20T09:28:16.887Z,98.10
2019-05-20T09:30:47.126Z,98.20
2019-05-20T09:33:17.117Z,98.10
2019-05-20T09:35:46.621Z,98.20
2019-05-20T09:38:20.805Z,98.30
2019-05-20T09:40:49.636Z,98.40
2019-05-20T09:43:19.225Z,98.60
2019-05-20T09:46:04.174Z,98.40
2019-05-20T09:48:20.057Z,98.40
2019-05-20T09:50:49.605Z,98.40
2019-05-20T09:53:19.089Z,98.30
2019-05-20T09:55:48.650Z,98.30
2019-05-20T09:58:18.274Z,98.20
2019-05-20T10:00:48.551Z,98.30
2019-05-20T10:03:18.121Z,98.30
2019-05-20T10:05:47.698Z,98.30
2019-05-20T10:08:17.209Z,98.20
2019-05-20T10:10:46.762Z,98.40
2019-05-20T10:13:16.390Z,98.30
2019-05-20T10:15:45.888Z,98.40
2019-05-20T10:18:15.535Z,98.30
2019-05-20T10:20:45.006Z,98.50
2019-05-20T10:23:15.909Z,98.50
2019-05-20T10:25:45.703Z,98.70
2019-05-20T10:28:15.188Z,98.60
2019-05-20T10:30:44.703Z,98.50
2019-05-20T10:33:14.246Z,98.30
2019-05-20T10:35:43.746Z,98.30
2019-05-20T10:38:13.331Z,98.00
2019-05-20T10:40:43.777Z,97.80
2019-05-20T10:43:13.232Z,97.60
2019-05-20T10:45:42.678Z,97.70
2019-05-20T10:48:12.194Z,97.90
2019-05-20T10:50:41.734Z,97.80
2019-05-20T10:53:11.172Z,97.80
2019-05-20T10:55:40.741Z,97.40
2019-05-20T10:58:10.232Z,97.40
2019-05-20T11:00:39.774Z,97.60
2019-05-20T11:03:09.295Z,97.70
2019-05-20T11:05:38.779Z,97.50
2019-05-20T11:08:08.302Z,97.70
2019-05-20T11:10:37.796Z,97.10
2019-05-20T11:13:07.343Z,97.30
2019-05-20T11:15:36.805Z,97.10
2019-05-20T11:18:06.343Z,97.30
2019-05-20T11:20:35.836Z,97.40
2019-05-20T11:23:05.363Z,97.50
2019-05-20T11:25:34.951Z,97.40
2019-05-20T11:28:04.725Z,97.30
2019-05-20T11:30:34.473Z,97.30
2019-05-20T11:33:04.121Z,97.50
2019-05-20T11:35:33.673Z,97.40
2019-05-20T11:38:03.173Z,97.00
2019-05-20T11:40:32.720Z,96.80
2019-05-20T11:43:02.199Z,97.20
2019-05-20T11:45:31.694Z,97.40
2019-05-20T11:48:01.195Z,97.30
2019-05-20T11:50:30.828Z,97.30
2019-05-20T11:53:00.426Z,97.20
2019-05-20T11:55:29.923Z,97.50
2019-05-20T11:58:14.589Z,97.40
2019-05-20T12:00:30.704Z,97.40
2019-05-20T12:03:00.182Z,97.30
2019-05-20T12:05:29.616Z,97.10
2019-05-20T12:07:59.102Z,97.00
2019-05-20T12:10:28.520Z,97.00
2019-05-20T12:12:58.000Z,96.80
2019-05-20T12:15:27.483Z,96.90
2019-05-20T12:17:57.163Z,96.70
2019-05-20T12:20:26.643Z,96.80
2019-05-20T12:22:56.210Z,96.90
2019-05-20T12:25:25.742Z,96.90
2019-05-20T12:27:55.229Z,96.90
2019-05-20T12:30:24.868Z,97.10
2019-05-20T12:33:17.314Z,97.20
2019-05-20T12:35:25.721Z,97.20
2019-05-20T12:37:55.384Z,97.20
2019-05-20T12:40:24.938Z,97.20
2019-05-20T12:42:54.476Z,97.20
2019-05-20T12:45:23.968Z,97.10
2019-05-20T12:47:53.859Z,97.10
2019-05-20T12:50:24.489Z,97.20
2019-05-20T12:52:54.069Z,97.30
2019-05-20T12:55:23.558Z,97.40
2019-05-20T12:57:53.114Z,97.60
2019-05-20T13:00:23.100Z,97.20
2019-05-20T13:02:52.559Z,97.30
2019-05-20T13:05:22.073Z,97.20
2019-05-20T13:07:51.577Z,97.10
2019-05-20T13:10:31.735Z,97.10
2019-05-20T13:12:52.456Z,97.00
2019-05-20T13:15:22.074Z,96.90
2019-05-20T13:17:51.605Z,96.80
2019-05-20T13:20:21.491Z,96.40
2019-05-20T13:22:51.168Z,96.60
2019-05-20T13:25:20.739Z,96.80
2019-05-20T13:27:50.217Z,96.80
2019-05-20T13:30:20.504Z,96.80
2019-05-20T13:32:50.001Z,96.80
2019-05-20T13:35:19.620Z,96.70
2019-05-20T13:37:49.083Z,96.70
2019-05-20T13:40:19.102Z,96.70
2019-05-20T13:42:48.562Z,96.80
2019-05-20T13:45:19.731Z,96.60
2019-05-20T13:47:49.224Z,96.80
2019-05-20T13:50:20.844Z,96.80
2019-05-20T13:52:50.285Z,96.80
2019-05-20T13:55:19.820Z,96.80
2019-05-20T13:57:49.268Z,96.90
2019-05-20T14:00:19.612Z,96.90
2019-05-20T14:02:49.162Z,96.90
2019-05-20T14:05:19.051Z,96.90
2019-05-20T14:07:48.402Z,97.00
2019-05-20T14:10:18.118Z,97.00
2019-05-20T14:12:47.612Z,97.10
2019-05-20T14:15:17.283Z,97.20
2019-05-20T14:17:47.055Z,97.30
2019-05-20T14:20:17.134Z,97.30
2019-05-20T14:22:46.691Z,97.40
2019-05-20T14:25:16.370Z,97.30
2019-05-20T14:27:45.842Z,97.30
2019-05-20T14:30:15.531Z,97.20
2019-05-20T14:32:45.072Z,97.30
2019-05-20T14:35:14.981Z,97.30
2019-05-20T14:37:44.561Z,97.30
2019-05-20T14:40:14.322Z,97.40
2019-05-20T14:42:43.797Z,97.50
2019-05-20T14:45:13.853Z,97.50
2019-05-20T14:47:43.362Z,97.40
2019-05-20T14:50:13.157Z,97.50
2019-05-20T14:52:42.740Z,97.40
2019-05-20T14:55:12.640Z,97.10
2019-05-20T14:57:42.155Z,97.20
2019-05-20T15:00:13.559Z,97.10
2019-05-20T15:02:43.059Z,97.10
2019-05-20T15:05:13.062Z,97.20
2019-05-20T15:07:42.521Z,97.30
2019-05-20T15:10:12.677Z,97.30
2019-05-20T15:12:42.203Z,97.30
2019-05-20T15:15:12.440Z,97.40
2019-05-20T15:17:42.097Z,97.40
2019-05-20T15:20:12.805Z,97.50
2019-05-20T15:22:42.323Z,97.60
2019-05-20T15:25:12.161Z,97.60
2019-05-20T15:27:41.654Z,97.60
2019-05-20T15:30:12.020Z,97.80
2019-05-20T15:32:41.542Z,97.70
2019-05-20T15:35:11.327Z,97.70
2019-05-20T15:37:40.791Z,97.60
2019-05-20T15:40:11.367Z,97.70
2019-05-20T15:42:40.893Z,97.50
2019-05-20T15:45:12.666Z,97.60
2019-05-20T15:47:42.140Z,97.60
2019-05-20T15:50:12.013Z,97.50
2019-05-20T15:52:41.795Z,97.50
2019-05-20T15:55:11.849Z,97.40
2019-05-20T15:57:41.342Z,97.50
2019-05-20T16:00:12.225Z,97.40
2019-05-20T16:02:41.723Z,97.30
2019-05-20T16:05:11.468Z,97.30
2019-05-20T16:07:41.011Z,97.30
2019-05-20T16:10:10.618Z,97.30
2019-05-20T16:12:40.135Z,97.40
2019-05-20T16:15:10.155Z,97.50
2019-05-20T16:17:39.635Z,97.50
2019-05-20T16:20:09.983Z,97.60
2019-05-20T16:22:39.439Z,97.50
2019-05-20T16:25:09.453Z,97.50
2019-05-20T16:27:39.061Z,97.60
2019-05-20T16:30:12.154Z,97.60
2019-05-20T16:32:41.833Z,97.70
2019-05-20T16:35:11.580Z,97.70
2019-05-20T16:37:41.154Z,97.70
2019-05-20T16:40:12.106Z,97.80
2019-05-20T16:42:42.170Z,97.80
2019-05-20T16:45:12.592Z,97.80
2019-05-20T16:47:42.082Z,97.80
2019-05-20T16:50:14.223Z,97.80
2019-05-20T16:52:43.682Z,97.80
2019-05-20T16:55:13.323Z,97.80
2019-05-20T16:57:47.833Z,97.90
2019-05-20T17:00:30.543Z,98.00
2019-05-20T17:02:49.907Z,98.00
2019-05-20T17:05:19.461Z,97.90
2019-05-20T17:07:48.945Z,97.90
2019-05-20T17:10:18.609Z,97.80
2019-05-20T17:12:48.281Z,97.60
2019-05-20T17:15:18.083Z,97.60
2019-05-20T17:17:47.553Z,97.60
2019-05-20T17:20:21.874Z,97.70
2019-05-20T17:22:51.471Z,97.70
2019-05-20T17:25:21.175Z,97.70
2019-05-20T17:27:50.928Z,97.80
2019-05-20T17:30:20.610Z,97.80
2019-05-20T17:32:51.166Z,97.80
2019-05-20T17:35:21.011Z,97.80
2019-05-20T17:37:50.523Z,97.70
2019-05-20T17:40:20.650Z,97.70
2019-05-20T17:42:50.266Z,97.70
2019-05-20T17:45:20.520Z,97.70
2019-05-20T17:47:50.129Z,97.80
2019-05-20T17:50:20.120Z,97.90
2019-05-20T17:52:49.583Z,97.90
2019-05-20T17:55:19.344Z,97.90
2019-05-20T17:57:48.888Z,97.90
2019-05-20T18:00:20.219Z,97.90
2019-05-20T18:02:49.770Z,97.80
2019-05-20T18:05:19.341Z,97.90
2019-05-20T18:07:48.822Z,98.00
2019-05-20T18:10:20.266Z,98.00
2019-05-20T18:12:49.544Z,98.10
2019-05-20T18:15:19.432Z,98.20
2019-05-20T18:17:48.990Z,98.20
2019-05-20T18:20:18.711Z,98.30
2019-05-20T18:22:48.385Z,98.40
2019-05-20T18:25:18.545Z,98.40
2019-05-20T18:27:48.026Z,98.40
2019-05-20T18:30:18.981Z,98.40
2019-05-20T18:32:48.475Z,98.50
2019-05-20T18:35:18.012Z,98.60
2019-05-20T18:37:47.551Z,98.70
2019-05-20T18:40:17.307Z,98.80
2019-05-20T18:42:46.970Z,98.90
2019-05-20T18:45:16.631Z,98.90
2019-05-20T18:47:46.141Z,99.00
2019-05-20T18:50:17.047Z,99.00
2019-05-20T18:52:46.713Z,99.10
2019-05-20T18:55:16.329Z,99.10
2019-05-20T18:57:45.845Z,99.30
2019-05-20T19:00:15.707Z,99.30
2019-05-20T19:02:45.167Z,99.30
2019-05-20T19:05:16.352Z,99.30
2019-05-20T19:07:45.899Z,99.30
2019-05-20T19:10:15.921Z,99.30
2019-05-20T19:12:45.472Z,99.30
2019-05-20T19:15:16.862Z,99.30
2019-05-20T19:17:46.364Z,99.40
2019-05-20T19:20:15.943Z,99.50
2019-05-20T19:22:45.531Z,99.60
2019-05-20T19:25:15.267Z,99.50
2019-05-20T19:27:44.837Z,99.70
2019-05-20T19:30:14.607Z,99.60
2019-05-20T19:32:44.098Z,99.80
2019-05-20T19:35:14.551Z,99.90
2019-05-20T19:37:43.968Z,99.90
2019-05-20T19:40:13.742Z,99.90
2019-05-20T19:42:43.257Z,99.90
2019-05-20T19:45:12.871Z,99.90
2019-05-20T19:47:42.426Z,99.90
2019-05-20T19:50:12.744Z,99.90
2019-05-20T19:52:42.253Z,99.90
2019-05-20T19:55:11.925Z,99.90
2019-05-20T19:57:41.482Z,99.90
2019-05-20T20:00:12.051Z,99.90
2019-05-20T20:02:41.540Z,99.90
2019-05-20T20:05:11.676Z,99.90
2019-05-20T20:07:41.240Z,99.90
2019-05-20T20:10:11.146Z,99.90
2019-05-20T20:12:40.651Z,99.90
2019-05-20T20:15:19.317Z,99.90
2019-05-20T20:17:48.757Z,99.90
2019-05-20T20:20:18.306Z,99.90
2019-05-20T20:22:47.760Z,99.90
2019-05-20T20:25:17.357Z,99.90
2019-05-20T20:27:46.795Z,99.90
2019-05-20T20:30:16.575Z,99.90
2019-05-20T20:32:46.162Z,99.90
2019-05-20T20:35:15.960Z,99.90
2019-05-20T20:37:45.536Z,99.90
2019-05-20T20:40:15.409Z,99.90
2019-05-20T20:42:44.900Z,99.90
2019-05-20T20:45:14.708Z,99.90
2019-05-20T20:47:44.222Z,99.90
2019-05-20T20:50:14.198Z,99.90
2019-05-20T20:52:43.762Z,99.90
2019-05-20T20:55:13.782Z,99.90
2019-05-20T20:57:43.466Z,99.90
2019-05-20T21:00:13.477Z,99.90
2019-05-20T21:02:52.697Z,99.90
2019-05-20T21:05:14.489Z,99.90
2019-05-20T21:07:43.941Z,99.90
2019-05-20T21:10:13.882Z,99.90
2019-05-20T21:12:43.353Z,99.90
2019-05-20T21:15:13.038Z,99.90
2019-05-20T21:17:42.680Z,99.90
2019-05-20T21:20:12.454Z,99.90
2019-05-20T21:22:41.976Z,99.90
2019-05-20T21:25:11.830Z,99.90
2019-05-20T21:27:41.404Z,99.90
2019-05-20T21:30:11.599Z,99.90
2019-05-20T21:32:41.195Z,99.90
2019-05-20T21:35:11.010Z,99.90
2019-05-20T21:37:40.564Z,99.90
2019-05-20T21:40:10.296Z,99.90
2019-05-20T21:42:39.783Z,99.90
2019-05-20T21:45:09.734Z,99.90
2019-05-20T21:47:39.239Z,99.90
2019-05-20T21:50:09.265Z,99.90
2019-05-20T21:52:38.885Z,99.90
2019-05-20T21:55:08.496Z,99.90
2019-05-20T21:57:38.009Z,99.90
2019-05-20T22:00:12.624Z,99.90
2019-05-20T22:02:42.307Z,99.90
2019-05-20T22:05:12.107Z,99.90
2019-05-20T22:07:41.649Z,99.90
2019-05-20T22:10:11.324Z,99.90
2019-05-20T22:12:40.843Z,99.90
2019-05-20T22:15:10.715Z,99.90
2019-05-20T22:17:40.262Z,99.90
2019-05-20T22:20:11.049Z,99.90
2019-05-20T22:22:42.159Z,99.90
2019-05-20T22:25:11.853Z,99.90
2019-05-20T22:27:41.402Z,99.90
2019-05-20T22:30:11.973Z,99.90
2019-05-20T22:32:41.419Z,99.90
2019-05-20T22:35:11.179Z,99.90
2019-05-20T22:37:40.646Z,99.90
2019-05-20T22:40:10.574Z,99.90
2019-05-20T22:42:40.059Z,99.90
2019-05-20T22:45:09.692Z,99.90
2019-05-20T22:47:39.112Z,99.90
2019-05-20T22:50:08.702Z,99.90
2019-05-20T22:52:38.198Z,99.90
2019-05-20T22:55:07.911Z,99.90
2019-05-20T22:57:37.425Z,99.90
2019-05-20T23:00:07.791Z,99.90
2019-05-20T23:02:37.379Z,99.90
2019-05-20T23:05:07.286Z,99.90
2019-05-20T23:07:36.792Z,99.90
2019-05-20T23:10:09.986Z,99.90
2019-05-20T23:12:39.419Z,99.90
2019-05-20T23:15:10.317Z,99.90
2019-05-20T23:17:39.873Z,99.90
2019-05-20T23:20:09.794Z,99.90
2019-05-20T23:22:39.331Z,99.90
2019-05-20T23:25:09.012Z,99.90
2019-05-20T23:27:38.518Z,99.90
2019-05-20T23:30:08.691Z,99.90
2019-05-20T23:32:38.283Z,99.90
2019-05-20T23:35:08.529Z,99.90
2019-05-20T23:37:38.050Z,99.90
2019-05-20T23:40:08.137Z,99.90
2019-05-20T23:42:37.652Z,99.90
2019-05-20T23:45:09.820Z,99.90
2019-05-20T23:47:39.401Z,99.90
2019-05-20T23:50:09.178Z,99.90
2019-05-20T23:52:38.675Z,99.90
2019-05-20T23:55:09.364Z,99.90
2019-05-20T23:57:38.910Z,99.90
